Dan Fighter — OVUE2 — position and weather

sailwx.info

Track history (hours):
 
Tides and Currents Weather Stations Pressure Air Temp Water Temp Dewpoint Dewpoint Depression Visibility Wind Speed Wind Dir Waves Ship Positions

Dan Fighter

Last reported at 2017-Apr-26 23:28 UTC. Time now 2017-Apr-26 23:34 UTC.
Position N 59°40' E 028°18'.

Length 64 m; draft 3.1 m.

Type: Cargo ship. MMSI: 220386978.

Date/timePositionNaut miles runAvg speedWind from/ knotsBaromVisibWave heightAir tempDewpointWater temp
2017-Apr-26 23:28N 59°40' E 028°18'0 0.0
2017-Apr-26 22:58N 59°40' E 028°18'0 0.0
2017-Apr-26 22:16N 59°40' E 028°18'0 0.0
2017-Apr-26 21:49N 59°40' E 028°18'0 0.0
2017-Apr-26 21:22N 59°40' E 028°18'0 0.0
2017-Apr-26 20:52N 59°40' E 028°18'0 0.0
2017-Apr-26 20:22N 59°40' E 028°18'0 0.0
2017-Apr-26 19:52N 59°40' E 028°18'0 0.0
2017-Apr-26 19:22N 59°40' E 028°18'0 0.0
2017-Apr-26 18:55N 59°40' E 028°18'0 0.0
2017-Apr-26 18:25N 59°40' E 028°18'0 0.0
2017-Apr-26 17:55N 59°40' E 028°18'0 0.0
2017-Apr-26 17:25N 59°40' E 028°18'0 0.0
2017-Apr-26 16:55N 59°40' E 028°18'0 0.0
2017-Apr-26 16:25N 59°40' E 028°18'0 0.0
2017-Apr-26 15:58N 59°40' E 028°18'0 0.0
2017-Apr-26 15:28N 59°40' E 028°18'0 0.0
2017-Apr-26 14:58N 59°40' E 028°18'0 0.0
2017-Apr-26 14:10N 59°40' E 028°18'0 0.0
2017-Apr-26 13:28N 59°40' E 028°18'0 0.0
2017-Apr-26 12:58N 59°40' E 028°18'0 0.0
2017-Apr-26 12:28N 59°40' E 028°18'0 0.0
2017-Apr-26 11:58N 59°40' E 028°18'0 0.0
2017-Apr-26 11:16N 59°40' E 028°18'0 0.0
2017-Apr-26 10:58N 59°40' E 028°18'0 0.0
2017-Apr-26 10:19N 59°40' E 028°18'0 0.0
2017-Apr-26 09:58N 59°40' E 028°18'0 0.0
2017-Apr-26 09:28N 59°40' E 028°18'0 0.0
2017-Apr-26 08:58N 59°40' E 028°18'0 0.0
2017-Apr-26 08:19N 59°40' E 028°18'0 0.0
2017-Apr-26 08:00N 59°40' E 028°18'1 1.7
2017-Apr-26 07:30N 59°41' E 028°19'4 7.8
2017-Apr-26 07:00N 59°44' E 028°15'3 6.3
2017-Apr-26 06:30N 59°47' E 028°13'2 4.7
2017-Apr-26 06:00N 59°49' E 028°11'4 8.0
2017-Apr-26 05:30N 59°53' E 028°10'5 9.2
2017-Apr-26 05:00N 59°58' E 028°08'5 9.3
2017-Apr-26 04:30N 60°02' E 028°07'5 9.4
2017-Apr-26 04:00N 60°07' E 028°05'4 8.9
2017-Apr-26 03:30N 60°09' E 027°57'510.0
2017-Apr-26 03:00N 60°10' E 027°47'5 9.9
2017-Apr-26 02:30N 60°08' E 027°39'510.0
2017-Apr-26 02:01N 60°05' E 027°30'510.3
2017-Apr-26 01:31N 60°03' E 027°21'24 9.6
2017-Apr-25 22:58N 59°58' E 026°33'  
Track history (hours):
 
Tides and Currents Weather Stations Pressure Air Temp Water Temp Dewpoint Dewpoint Depression Visibility Wind Speed Wind Dir Waves Ship Positions

Dan Fighter

Last reported at 2017-Apr-26 23:28 UTC. Time now 2017-Apr-26 23:34 UTC.
Position N 59°40' E 028°18'.

Length 64 m; draft 3.1 m.

Type: Cargo ship. MMSI: 220386978.

Date/timePositionNaut miles runAvg speedWind from/ knotsBaromVisibWave heightAir tempDewpointWater temp
2017-Apr-26 23:28N 59°40' E 028°18'0 0.0
2017-Apr-26 22:58N 59°40' E 028°18'0 0.0
2017-Apr-26 22:16N 59°40' E 028°18'0 0.0
2017-Apr-26 21:49N 59°40' E 028°18'0 0.0
2017-Apr-26 21:22N 59°40' E 028°18'0 0.0
2017-Apr-26 20:52N 59°40' E 028°18'0 0.0
2017-Apr-26 20:22N 59°40' E 028°18'0 0.0
2017-Apr-26 19:52N 59°40' E 028°18'0 0.0
2017-Apr-26 19:22N 59°40' E 028°18'0 0.0
2017-Apr-26 18:55N 59°40' E 028°18'0 0.0
2017-Apr-26 18:25N 59°40' E 028°18'0 0.0
2017-Apr-26 17:55N 59°40' E 028°18'0 0.0
2017-Apr-26 17:25N 59°40' E 028°18'0 0.0
2017-Apr-26 16:55N 59°40' E 028°18'0 0.0
2017-Apr-26 16:25N 59°40' E 028°18'0 0.0
2017-Apr-26 15:58N 59°40' E 028°18'0 0.0
2017-Apr-26 15:28N 59°40' E 028°18'0 0.0
2017-Apr-26 14:58N 59°40' E 028°18'0 0.0
2017-Apr-26 14:10N 59°40' E 028°18'0 0.0
2017-Apr-26 13:28N 59°40' E 028°18'0 0.0
2017-Apr-26 12:58N 59°40' E 028°18'0 0.0
2017-Apr-26 12:28N 59°40' E 028°18'0 0.0
2017-Apr-26 11:58N 59°40' E 028°18'0 0.0
2017-Apr-26 11:16N 59°40' E 028°18'0 0.0
2017-Apr-26 10:58N 59°40' E 028°18'0 0.0
2017-Apr-26 10:19N 59°40' E 028°18'0 0.0
2017-Apr-26 09:58N 59°40' E 028°18'0 0.0
2017-Apr-26 09:28N 59°40' E 028°18'0 0.0
2017-Apr-26 08:58N 59°40' E 028°18'0 0.0
2017-Apr-26 08:19N 59°40' E 028°18'0 0.0
2017-Apr-26 08:00N 59°40' E 028°18'1 1.7
2017-Apr-26 07:30N 59°41' E 028°19'4 7.8
2017-Apr-26 07:00N 59°44' E 028°15'3 6.3
2017-Apr-26 06:30N 59°47' E 028°13'2 4.7
2017-Apr-26 06:00N 59°49' E 028°11'4 8.0
2017-Apr-26 05:30N 59°53' E 028°10'5 9.2
2017-Apr-26 05:00N 59°58' E 028°08'5 9.3
2017-Apr-26 04:30N 60°02' E 028°07'5 9.4
2017-Apr-26 04:00N 60°07' E 028°05'4 8.9
2017-Apr-26 03:30N 60°09' E 027°57'510.0
2017-Apr-26 03:00N 60°10' E 027°47'5 9.9
2017-Apr-26 02:30N 60°08' E 027°39'510.0
2017-Apr-26 02:01N 60°05' E 027°30'510.3
2017-Apr-26 01:31N 60°03' E 027°21'24 9.6
2017-Apr-25 22:58N 59°58' E 026°33'  

Dump ship's entire track history